sensor_id;sensor_type;location;lat;lon;timestamp;pressure;altitude;pressure_sealevel;temperature;humidity
34925;BME280;21130;51.728;8.748;2022-09-09T00:10:16;99701.13;;;14.68;92.58
34925;BME280;21130;51.728;8.748;2022-09-09T00:13:13;99691.38;;;14.65;93.15
34925;BME280;21130;51.728;8.748;2022-09-09T00:16:04;99699.94;;;14.74;92.70
34925;BME280;21130;51.728;8.748;2022-09-09T00:19:00;99699.84;;;14.84;92.39
34925;BME280;21130;51.728;8.748;2022-09-09T00:21:35;99691.47;;;14.84;92.03
34925;BME280;21130;51.728;8.748;2022-09-09T00:24:08;99692.94;;;15.06;90.32
34925;BME280;21130;51.728;8.748;2022-09-09T00:26:45;99683.69;;;15.10;90.17
34925;BME280;21130;51.728;8.748;2022-09-09T00:31:37;99684.59;;;15.30;88.82
34925;BME280;21130;51.728;8.748;2022-09-09T00:34:13;99688.81;;;15.51;87.69
34925;BME280;21130;51.728;8.748;2022-09-09T00:36:40;99677.34;;;15.53;87.71
34925;BME280;21130;51.728;8.748;2022-09-09T00:39:57;99682.41;;;15.51;87.82
34925;BME280;21130;51.728;8.748;2022-09-09T00:42:11;99682.03;;;15.58;87.33
34925;BME280;21130;51.728;8.748;2022-09-09T00:55:56;99693.06;;;15.73;86.63
34925;BME280;21130;51.728;8.748;2022-09-09T00:58:26;99697.84;;;15.72;86.85
34925;BME280;21130;51.728;8.748;2022-09-09T01:01:04;99697.22;;;15.75;86.96
34925;BME280;21130;51.728;8.748;2022-09-09T01:03:35;99701.63;;;15.82;86.67
34925;BME280;21130;51.728;8.748;2022-09-09T01:06:12;99697.84;;;15.72;87.37
34925;BME280;21130;51.728;8.748;2022-09-09T01:17:27;99693.53;;;15.56;89.64
34925;BME280;21130;51.728;8.748;2022-09-09T01:20:18;99695.22;;;15.52;89.24
34925;BME280;21130;51.728;8.748;2022-09-09T01:23:14;99696.44;;;15.46;89.74
34925;BME280;21130;51.728;8.748;2022-09-09T01:28:13;99705.59;;;15.27;91.01
34925;BME280;21130;51.728;8.748;2022-09-09T01:30:41;99700.56;;;15.24;91.42
34925;BME280;21130;51.728;8.748;2022-09-09T01:33:13;99701.44;;;15.20;91.93
34925;BME280;21130;51.728;8.748;2022-09-09T01:35:50;99694.22;;;15.19;92.42
34925;BME280;21130;51.728;8.748;2022-09-09T01:38:20;99693.66;;;15.17;92.04
34925;BME280;21130;51.728;8.748;2022-09-09T01:40:46;99692.56;;;15.18;92.26
34925;BME280;21130;51.728;8.748;2022-09-09T01:43:12;99690.66;;;15.13;91.97
34925;BME280;21130;51.728;8.748;2022-09-09T01:45:39;99690.38;;;15.09;92.31
34925;BME280;21130;51.728;8.748;2022-09-09T01:48:06;99694.41;;;14.98;93.04
34925;BME280;21130;51.728;8.748;2022-09-09T01:50:32;99687.84;;;14.84;93.90
34925;BME280;21130;51.728;8.748;2022-09-09T01:52:59;99693.19;;;14.80;94.50
34925;BME280;21130;51.728;8.748;2022-09-09T01:55:35;99687.44;;;14.66;95.29
34925;BME280;21130;51.728;8.748;2022-09-09T02:03:35;99677.56;;;14.40;97.44
34925;BME280;21130;51.728;8.748;2022-09-09T02:06:15;99684.56;;;14.37;98.31
34925;BME280;21130;51.728;8.748;2022-09-09T02:08:48;99677.31;;;14.36;98.25
34925;BME280;21130;51.728;8.748;2022-09-09T02:11:15;99679.06;;;14.27;98.79
34925;BME280;21130;51.728;8.748;2022-09-09T02:13:43;99683.28;;;14.24;98.90
34925;BME280;21130;51.728;8.748;2022-09-09T02:16:21;99678.56;;;14.20;99.17
34925;BME280;21130;51.728;8.748;2022-09-09T02:19:02;99691.94;;;14.23;99.77
34925;BME280;21130;51.728;8.748;2022-09-09T02:21:32;99691.34;;;14.26;99.47
34925;BME280;21130;51.728;8.748;2022-09-09T02:24:02;99688.50;;;14.31;99.42
34925;BME280;21130;51.728;8.748;2022-09-09T02:26:31;99683.50;;;14.28;99.11
34925;BME280;21130;51.728;8.748;2022-09-09T02:29:14;99683.41;;;14.43;98.37
34925;BME280;21130;51.728;8.748;2022-09-09T02:31:43;99681.69;;;14.47;97.16
34925;BME280;21130;51.728;8.748;2022-09-09T02:34:11;99686.16;;;14.48;96.84
34925;BME280;21130;51.728;8.748;2022-09-09T02:36:40;99683.91;;;14.51;96.61
34925;BME280;21130;51.728;8.748;2022-09-09T02:39:09;99684.72;;;14.56;96.20
34925;BME280;21130;51.728;8.748;2022-09-09T02:41:38;99694.44;;;14.64;95.06
34925;BME280;21130;51.728;8.748;2022-09-09T02:44:30;99695.44;;;14.78;93.77
34925;BME280;21130;51.728;8.748;2022-09-09T02:52:06;99695.94;;;14.85;93.09
34925;BME280;21130;51.728;8.748;2022-09-09T02:54:35;99696.66;;;14.96;92.09
34925;BME280;21130;51.728;8.748;2022-09-09T02:57:23;99689.31;;;15.05;91.73
34925;BME280;21130;51.728;8.748;2022-09-09T02:59:50;99694.91;;;15.05;91.05
34925;BME280;21130;51.728;8.748;2022-09-09T03:02:17;99696.84;;;15.10;90.73
34925;BME280;21130;51.728;8.748;2022-09-09T03:04:44;99693.78;;;15.06;91.55
34925;BME280;21130;51.728;8.748;2022-09-09T03:07:10;99703.53;;;15.09;91.18
34925;BME280;21130;51.728;8.748;2022-09-09T03:09:35;99702.38;;;15.15;89.94
34925;BME280;21130;51.728;8.748;2022-09-09T03:12:01;99699.31;;;15.11;90.10
34925;BME280;21130;51.728;8.748;2022-09-09T03:14:29;99704.78;;;15.22;88.95
34925;BME280;21130;51.728;8.748;2022-09-09T03:16:55;99707.03;;;15.20;89.03
34925;BME280;21130;51.728;8.748;2022-09-09T03:19:23;99699.56;;;15.15;89.82
34925;BME280;21130;51.728;8.748;2022-09-09T03:21:48;99703.47;;;15.14;89.69
34925;BME280;21130;51.728;8.748;2022-09-09T03:24:14;99699.41;;;15.01;90.58
34925;BME280;21130;51.728;8.748;2022-09-09T03:26:41;99711.72;;;15.00;91.07
34925;BME280;21130;51.728;8.748;2022-09-09T03:29:07;99700.25;;;15.02;90.99
34925;BME280;21130;51.728;8.748;2022-09-09T03:31:33;99693.09;;;14.90;91.22
34925;BME280;21130;51.728;8.748;2022-09-09T03:34:00;99694.53;;;14.88;92.12
34925;BME280;21130;51.728;8.748;2022-09-09T03:36:26;99693.75;;;14.82;92.61
34925;BME280;21130;51.728;8.748;2022-09-09T03:38:52;99687.66;;;14.75;92.90
34925;BME280;21130;51.728;8.748;2022-09-09T03:41:17;99691.00;;;14.77;93.17
34925;BME280;21130;51.728;8.748;2022-09-09T03:43:43;99689.53;;;14.85;93.06
34925;BME280;21130;51.728;8.748;2022-09-09T03:46:08;99690.34;;;14.85;92.04
34925;BME280;21130;51.728;8.748;2022-09-09T03:48:34;99681.44;;;14.83;92.50
34925;BME280;21130;51.728;8.748;2022-09-09T03:50:59;99686.72;;;14.85;93.40
34925;BME280;21130;51.728;8.748;2022-09-09T03:53:26;99680.59;;;14.83;92.81
34925;BME280;21130;51.728;8.748;2022-09-09T03:55:53;99681.72;;;14.82;93.42
34925;BME280;21130;51.728;8.748;2022-09-09T03:58:25;99674.69;;;14.84;93.83
34925;BME280;21130;51.728;8.748;2022-09-09T04:01:11;99676.94;;;14.87;93.74
34925;BME280;21130;51.728;8.748;2022-09-09T04:03:42;99680.28;;;14.84;93.97
34925;BME280;21130;51.728;8.748;2022-09-09T04:06:09;99671.84;;;14.89;94.12
34925;BME280;21130;51.728;8.748;2022-09-09T04:08:36;99677.75;;;14.88;93.05
34925;BME280;21130;51.728;8.748;2022-09-09T04:11:02;99681.09;;;14.90;93.18
34925;BME280;21130;51.728;8.748;2022-09-09T04:13:34;99682.47;;;14.93;92.83
34925;BME280;21130;51.728;8.748;2022-09-09T04:16:03;99680.50;;;14.93;92.85
34925;BME280;21130;51.728;8.748;2022-09-09T04:18:29;99690.84;;;14.93;93.21
34925;BME280;21130;51.728;8.748;2022-09-09T04:20:55;99685.25;;;14.93;93.27
34925;BME280;21130;51.728;8.748;2022-09-09T04:23:23;99696.38;;;14.98;93.26
34925;BME280;21130;51.728;8.748;2022-09-09T04:25:54;99699.75;;;14.95;93.35
34925;BME280;21130;51.728;8.748;2022-09-09T04:28:22;99705.25;;;15.05;91.82
34925;BME280;21130;51.728;8.748;2022-09-09T04:30:48;99705.53;;;15.03;93.65
34925;BME280;21130;51.728;8.748;2022-09-09T04:33:14;99700.78;;;15.04;94.99
34925;BME280;21130;51.728;8.748;2022-09-09T04:35:44;99708.00;;;15.10;93.35
34925;BME280;21130;51.728;8.748;2022-09-09T04:38:09;99702.75;;;15.03;93.06
34925;BME280;21130;51.728;8.748;2022-09-09T04:40:35;99707.56;;;14.98;93.49
34925;BME280;21130;51.728;8.748;2022-09-09T04:43:02;99714.25;;;14.97;93.47
34925;BME280;21130;51.728;8.748;2022-09-09T04:45:30;99712.94;;;14.89;94.00
34925;BME280;21130;51.728;8.748;2022-09-09T04:47:56;99714.66;;;14.85;94.30
34925;BME280;21130;51.728;8.748;2022-09-09T04:50:21;99711.66;;;14.76;94.46
34925;BME280;21130;51.728;8.748;2022-09-09T04:52:46;99714.75;;;14.75;94.66
34925;BME280;21130;51.728;8.748;2022-09-09T04:55:12;99708.94;;;14.66;95.01
34925;BME280;21130;51.728;8.748;2022-09-09T04:57:38;99719.25;;;14.71;95.49
34925;BME280;21130;51.728;8.748;2022-09-09T05:00:05;99707.81;;;14.67;95.82
34925;BME280;21130;51.728;8.748;2022-09-09T05:02:31;99704.97;;;14.72;96.41
34925;BME280;21130;51.728;8.748;2022-09-09T05:04:58;99711.38;;;14.78;94.55
34925;BME280;21130;51.728;8.748;2022-09-09T05:07:23;99711.00;;;14.84;93.79
34925;BME280;21130;51.728;8.748;2022-09-09T05:09:51;99716.59;;;14.84;93.30
34925;BME280;21130;51.728;8.748;2022-09-09T05:12:16;99715.78;;;14.84;93.15
34925;BME280;21130;51.728;8.748;2022-09-09T05:14:43;99718.88;;;14.82;93.21
34925;BME280;21130;51.728;8.748;2022-09-09T05:17:09;99720.31;;;14.80;93.63
34925;BME280;21130;51.728;8.748;2022-09-09T05:19:35;99722.81;;;14.76;93.87
34925;BME280;21130;51.728;8.748;2022-09-09T05:22:00;99718.03;;;14.82;92.93
34925;BME280;21130;51.728;8.748;2022-09-09T05:24:26;99712.69;;;14.85;92.35
34925;BME280;21130;51.728;8.748;2022-09-09T05:26:51;99712.97;;;14.84;93.41
34925;BME280;21130;51.728;8.748;2022-09-09T05:29:17;99716.03;;;14.87;93.63
34925;BME280;21130;51.728;8.748;2022-09-09T05:31:45;99717.97;;;14.87;92.76
34925;BME280;21130;51.728;8.748;2022-09-09T05:34:10;99715.44;;;14.90;93.47
34925;BME280;21130;51.728;8.748;2022-09-09T05:36:36;99715.44;;;14.90;93.25
34925;BME280;21130;51.728;8.748;2022-09-09T05:39:01;99717.56;;;15.04;91.87
34925;BME280;21130;51.728;8.748;2022-09-09T05:41:27;99720.28;;;15.09;92.17
34925;BME280;21130;51.728;8.748;2022-09-09T05:43:53;99720.50;;;15.18;91.06
34925;BME280;21130;51.728;8.748;2022-09-09T05:46:21;99720.63;;;15.31;90.22
34925;BME280;21130;51.728;8.748;2022-09-09T05:48:48;99721.88;;;15.44;89.72
34925;BME280;21130;51.728;8.748;2022-09-09T05:51:23;99721.44;;;15.61;89.01
34925;BME280;21130;51.728;8.748;2022-09-09T05:53:50;99724.00;;;15.82;87.45
34925;BME280;21130;51.728;8.748;2022-09-09T05:56:21;99722.47;;;16.13;84.91
34925;BME280;21130;51.728;8.748;2022-09-09T05:58:48;99724.16;;;16.33;84.79
34925;BME280;21130;51.728;8.748;2022-09-09T06:01:22;99723.69;;;16.45;82.70
34925;BME280;21130;51.728;8.748;2022-09-09T06:03:49;99718.63;;;16.66;83.34
34925;BME280;21130;51.728;8.748;2022-09-09T06:06:21;99716.31;;;16.87;81.79
34925;BME280;21130;51.728;8.748;2022-09-09T06:08:46;99726.16;;;17.03;79.39
34925;BME280;21130;51.728;8.748;2022-09-09T06:11:20;99722.44;;;17.08;78.67
34925;BME280;21130;51.728;8.748;2022-09-09T06:13:47;99721.72;;;17.16;78.60
34925;BME280;21130;51.728;8.748;2022-09-09T06:16:17;99726.59;;;17.24;78.76
34925;BME280;21130;51.728;8.748;2022-09-09T06:18:45;99717.56;;;17.14;77.49
34925;BME280;21130;51.728;8.748;2022-09-09T06:21:19;99720.03;;;17.15;77.80
34925;BME280;21130;51.728;8.748;2022-09-09T06:23:46;99733.66;;;17.22;78.34
34925;BME280;21130;51.728;8.748;2022-09-09T06:26:14;99728.78;;;17.14;78.87
34925;BME280;21130;51.728;8.748;2022-09-09T06:28:40;99723.88;;;17.05;78.26
34925;BME280;21130;51.728;8.748;2022-09-09T06:31:09;99724.38;;;17.08;78.95
34925;BME280;21130;51.728;8.748;2022-09-09T06:33:37;99725.97;;;17.14;78.68
34925;BME280;21130;51.728;8.748;2022-09-09T06:36:05;99736.75;;;17.06;78.58
34925;BME280;21130;51.728;8.748;2022-09-09T06:38:30;99735.50;;;17.13;78.32
34925;BME280;21130;51.728;8.748;2022-09-09T06:40:58;99733.75;;;17.17;77.48
34925;BME280;21130;51.728;8.748;2022-09-09T06:43:24;99735.50;;;17.13;77.70
34925;BME280;21130;51.728;8.748;2022-09-09T06:45:57;99735.84;;;17.25;77.91
34925;BME280;21130;51.728;8.748;2022-09-09T06:48:23;99736.38;;;17.27;78.33
34925;BME280;21130;51.728;8.748;2022-09-09T06:50:48;99738.97;;;17.37;78.36
34925;BME280;21130;51.728;8.748;2022-09-09T06:53:17;99747.28;;;17.28;77.52
34925;BME280;21130;51.728;8.748;2022-09-09T06:55:45;99738.44;;;17.21;78.17
34925;BME280;21130;51.728;8.748;2022-09-09T06:58:10;99747.78;;;17.17;77.91
34925;BME280;21130;51.728;8.748;2022-09-09T07:00:35;99743.09;;;17.12;77.90
34925;BME280;21130;51.728;8.748;2022-09-09T07:03:04;99746.72;;;17.13;78.26
34925;BME280;21130;51.728;8.748;2022-09-09T07:05:29;99747.66;;;17.08;78.23
34925;BME280;21130;51.728;8.748;2022-09-09T07:07:54;99750.56;;;17.03;78.54
34925;BME280;21130;51.728;8.748;2022-09-09T07:10:20;99748.25;;;17.05;79.27
34925;BME280;21130;51.728;8.748;2022-09-09T07:12:51;99747.84;;;16.98;79.18
34925;BME280;21130;51.728;8.748;2022-09-09T07:15:17;99740.25;;;16.98;78.87
34925;BME280;21130;51.728;8.748;2022-09-09T07:17:44;99755.84;;;17.04;78.60
34925;BME280;21130;51.728;8.748;2022-09-09T07:20:09;99743.59;;;17.00;78.36
34925;BME280;21130;51.728;8.748;2022-09-09T07:22:34;99746.69;;;16.99;78.40
34925;BME280;21130;51.728;8.748;2022-09-09T07:25:00;99749.69;;;17.02;78.32
34925;BME280;21130;51.728;8.748;2022-09-09T07:27:27;99744.75;;;17.13;77.78
34925;BME280;21130;51.728;8.748;2022-09-09T07:29:52;99747.59;;;17.27;78.00
34925;BME280;21130;51.728;8.748;2022-09-09T07:32:19;99754.69;;;17.38;77.41
34925;BME280;21130;51.728;8.748;2022-09-09T07:34:45;99745.75;;;17.50;76.93
34925;BME280;21130;51.728;8.748;2022-09-09T07:37:11;99742.25;;;17.58;76.21
34925;BME280;21130;51.728;8.748;2022-09-09T07:39:39;99746.00;;;17.54;76.51
34925;BME280;21130;51.728;8.748;2022-09-09T07:42:05;99749.31;;;17.56;76.27
34925;BME280;21130;51.728;8.748;2022-09-09T07:44:30;99741.63;;;17.61;75.50
34925;BME280;21130;51.728;8.748;2022-09-09T07:47:00;99741.13;;;17.87;75.49
34925;BME280;21130;51.728;8.748;2022-09-09T07:49:25;99738.97;;;17.84;75.35
34925;BME280;21130;51.728;8.748;2022-09-09T07:51:51;99740.00;;;18.02;74.41
34925;BME280;21130;51.728;8.748;2022-09-09T07:54:17;99749.53;;;18.28;74.80
34925;BME280;21130;51.728;8.748;2022-09-09T07:56:49;99745.56;;;18.29;73.20
34925;BME280;21130;51.728;8.748;2022-09-09T07:59:15;99738.72;;;18.22;73.40
34925;BME280;21130;51.728;8.748;2022-09-09T08:01:43;99749.13;;;18.21;72.99
34925;BME280;21130;51.728;8.748;2022-09-09T08:04:13;99747.66;;;18.10;73.99
34925;BME280;21130;51.728;8.748;2022-09-09T08:06:43;99749.03;;;17.99;74.94
34925;BME280;21130;51.728;8.748;2022-09-09T08:09:10;99746.75;;;17.87;75.83
34925;BME280;21130;51.728;8.748;2022-09-09T08:11:35;99766.56;;;17.77;77.05
34925;BME280;21130;51.728;8.748;2022-09-09T08:14:02;99768.81;;;17.47;76.73
34925;BME280;21130;51.728;8.748;2022-09-09T08:16:30;99775.16;;;17.06;76.56
34925;BME280;21130;51.728;8.748;2022-09-09T08:18:56;99769.72;;;16.96;78.16
34925;BME280;21130;51.728;8.748;2022-09-09T08:21:27;99770.41;;;17.20;81.24
34925;BME280;21130;51.728;8.748;2022-09-09T08:23:54;99766.97;;;17.56;80.40
34925;BME280;21130;51.728;8.748;2022-09-09T08:26:25;99773.50;;;17.98;79.02
34925;BME280;21130;51.728;8.748;2022-09-09T08:28:53;99769.03;;;18.47;75.78
34925;BME280;21130;51.728;8.748;2022-09-09T08:31:21;99767.41;;;19.05;73.55
34925;BME280;21130;51.728;8.748;2022-09-09T08:33:48;99761.53;;;19.15;68.52
34925;BME280;21130;51.728;8.748;2022-09-09T08:36:24;99759.16;;;19.62;68.22
34925;BME280;21130;51.728;8.748;2022-09-09T08:38:52;99762.91;;;20.29;64.74
34925;BME280;21130;51.728;8.748;2022-09-09T08:44:36;99775.56;;;20.49;63.58
34925;BME280;21130;51.728;8.748;2022-09-09T08:53:17;99774.06;;;20.52;67.42
34925;BME280;21130;51.728;8.748;2022-09-09T08:55:51;99776.81;;;20.25;65.54
34925;BME280;21130;51.728;8.748;2022-09-09T08:58:23;99774.75;;;20.08;65.21
34925;BME280;21130;51.728;8.748;2022-09-09T09:04:07;99774.13;;;20.12;65.13
34925;BME280;21130;51.728;8.748;2022-09-09T09:06:47;99776.28;;;20.15;66.58
34925;BME280;21130;51.728;8.748;2022-09-09T09:09:39;99776.25;;;20.72;64.08
34925;BME280;21130;51.728;8.748;2022-09-09T09:12:23;99777.06;;;20.64;62.54
34925;BME280;21130;51.728;8.748;2022-09-09T09:14:50;99773.38;;;20.37;63.50
34925;BME280;21130;51.728;8.748;2022-09-09T09:17:20;99771.22;;;20.34;63.11
34925;BME280;21130;51.728;8.748;2022-09-09T09:19:47;99768.97;;;20.05;64.71
34925;BME280;21130;51.728;8.748;2022-09-09T09:22:34;99774.84;;;19.86;64.88
34925;BME280;21130;51.728;8.748;2022-09-09T09:25:23;99773.00;;;19.50;65.46
34925;BME280;21130;51.728;8.748;2022-09-09T09:27:58;99768.66;;;19.44;65.92
34925;BME280;21130;51.728;8.748;2022-09-09T09:30:29;99767.63;;;20.02;65.90
34925;BME280;21130;51.728;8.748;2022-09-09T09:33:01;99764.06;;;20.28;64.20
34925;BME280;21130;51.728;8.748;2022-09-09T09:35:27;99763.06;;;20.33;63.74
34925;BME280;21130;51.728;8.748;2022-09-09T09:37:53;99759.75;;;20.31;62.24
34925;BME280;21130;51.728;8.748;2022-09-09T09:40:21;99752.94;;;20.14;58.77
34925;BME280;21130;51.728;8.748;2022-09-09T09:42:58;99751.47;;;20.34;58.79
34925;BME280;21130;51.728;8.748;2022-09-09T09:45:32;99746.41;;;20.97;57.01
34925;BME280;21130;51.728;8.748;2022-09-09T09:48:06;99743.84;;;21.48;55.20
34925;BME280;21130;51.728;8.748;2022-09-09T09:50:34;99741.03;;;21.39;55.18
34925;BME280;21130;51.728;8.748;2022-09-09T09:53:04;99746.41;;;21.70;54.78
34925;BME280;21130;51.728;8.748;2022-09-09T09:55:32;99755.69;;;22.09;54.46
34925;BME280;21130;51.728;8.748;2022-09-09T09:58:04;99753.00;;;22.21;54.19
34925;BME280;21130;51.728;8.748;2022-09-09T10:00:30;99750.72;;;22.65;51.33
34925;BME280;21130;51.728;8.748;2022-09-09T10:02:55;99757.16;;;22.75;52.32
34925;BME280;21130;51.728;8.748;2022-09-09T10:05:31;99747.41;;;22.63;49.86
34925;BME280;21130;51.728;8.748;2022-09-09T10:10:51;99750.84;;;22.27;49.70
34925;BME280;21130;51.728;8.748;2022-09-09T10:16:05;99761.53;;;21.66;49.87
34925;BME280;21130;51.728;8.748;2022-09-09T10:18:58;99758.59;;;21.53;49.59
34925;BME280;21130;51.728;8.748;2022-09-09T10:27:33;99755.38;;;20.82;51.11
34925;BME280;21130;51.728;8.748;2022-09-09T10:30:09;99754.03;;;20.88;50.53
34925;BME280;21130;51.728;8.748;2022-09-09T10:35:33;99747.06;;;21.76;51.22
34925;BME280;21130;51.728;8.748;2022-09-09T10:38:16;99745.41;;;22.64;49.54
34925;BME280;21130;51.728;8.748;2022-09-09T10:43:51;99733.41;;;23.67;46.16
34925;BME280;21130;51.728;8.748;2022-09-09T10:49:22;99732.41;;;23.26;45.54
34925;BME280;21130;51.728;8.748;2022-09-09T10:57:08;99715.41;;;22.51;48.33
34925;BME280;21130;51.728;8.748;2022-09-09T10:59:44;99717.56;;;22.87;45.65
34925;BME280;21130;51.728;8.748;2022-09-09T11:02:19;99721.59;;;22.86;46.85
34925;BME280;21130;51.728;8.748;2022-09-09T11:05:00;99719.34;;;23.00;46.05
34925;BME280;21130;51.728;8.748;2022-09-09T11:07:36;99715.00;;;23.61;44.25
34925;BME280;21130;51.728;8.748;2022-09-09T11:10:11;99713.41;;;24.09;43.38
34925;BME280;21130;51.728;8.748;2022-09-09T11:12:43;99723.19;;;24.11;44.18
34925;BME280;21130;51.728;8.748;2022-09-09T11:15:41;99717.06;;;24.09;43.18
34925;BME280;21130;51.728;8.748;2022-09-09T11:18:11;99723.41;;;24.43;43.07
34925;BME280;21130;51.728;8.748;2022-09-09T11:20:39;99722.41;;;24.76;40.87
34925;BME280;21130;51.728;8.748;2022-09-09T11:23:11;99718.66;;;24.60;41.13
34925;BME280;21130;51.728;8.748;2022-09-09T11:25:48;99721.09;;;23.96;40.96
34925;BME280;21130;51.728;8.748;2022-09-09T11:28:24;99723.91;;;24.08;41.84
34925;BME280;21130;51.728;8.748;2022-09-09T11:44:37;99712.84;;;24.68;40.25
34925;BME280;21130;51.728;8.748;2022-09-09T11:47:03;99710.81;;;23.91;40.89
34925;BME280;21130;51.728;8.748;2022-09-09T11:49:39;99716.84;;;23.44;42.22
34925;BME280;21130;51.728;8.748;2022-09-09T11:52:21;99712.38;;;22.98;43.02
34925;BME280;21130;51.728;8.748;2022-09-09T11:54:48;99708.13;;;23.49;43.49
34925;BME280;21130;51.728;8.748;2022-09-09T11:57:33;99716.16;;;23.35;42.58
34925;BME280;21130;51.728;8.748;2022-09-09T12:00:00;99712.47;;;23.80;42.51
34925;BME280;21130;51.728;8.748;2022-09-09T12:02:27;99723.78;;;24.05;41.79
34925;BME280;21130;51.728;8.748;2022-09-09T12:05:00;99720.84;;;23.89;42.37
34925;BME280;21130;51.728;8.748;2022-09-09T12:07:42;99719.53;;;23.99;43.04
34925;BME280;21130;51.728;8.748;2022-09-09T12:10:30;99720.19;;;23.59;42.82
34925;BME280;21130;51.728;8.748;2022-09-09T12:19:16;99718.28;;;24.73;42.39
34925;BME280;21130;51.728;8.748;2022-09-09T12:22:06;99714.47;;;25.10;42.14
34925;BME280;21130;51.728;8.748;2022-09-09T12:25:09;99719.50;;;25.00;40.40
34925;BME280;21130;51.728;8.748;2022-09-09T12:28:14;99714.41;;;24.66;40.77
34925;BME280;21130;51.728;8.748;2022-09-09T12:33:16;99710.28;;;24.91;41.50
34925;BME280;21130;51.728;8.748;2022-09-09T12:35:44;99721.03;;;25.26;40.11
34925;BME280;21130;51.728;8.748;2022-09-09T12:38:20;99711.56;;;25.82;39.52
34925;BME280;21130;51.728;8.748;2022-09-09T12:40:57;99729.78;;;25.65;37.25
34925;BME280;21130;51.728;8.748;2022-09-09T12:43:24;99715.22;;;25.51;37.63
34925;BME280;21130;51.728;8.748;2022-09-09T12:46:21;99716.31;;;25.46;38.22
34925;BME280;21130;51.728;8.748;2022-09-09T12:48:47;99706.84;;;24.98;38.25
34925;BME280;21130;51.728;8.748;2022-09-09T12:51:32;99714.09;;;25.11;39.44
34925;BME280;21130;51.728;8.748;2022-09-09T12:53:58;99707.81;;;24.37;39.62
34925;BME280;21130;51.728;8.748;2022-09-09T12:56:27;99706.59;;;24.63;41.03
34925;BME280;21130;51.728;8.748;2022-09-09T12:58:56;99696.97;;;24.79;39.21
34925;BME280;21130;51.728;8.748;2022-09-09T13:01:29;99688.69;;;24.22;38.99
34925;BME280;21130;51.728;8.748;2022-09-09T13:03:55;99688.94;;;24.17;40.47
34925;BME280;21130;51.728;8.748;2022-09-09T13:06:29;99698.41;;;24.73;40.19
34925;BME280;21130;51.728;8.748;2022-09-09T13:09:00;99698.13;;;24.50;39.99
34925;BME280;21130;51.728;8.748;2022-09-09T13:11:31;99698.75;;;24.19;39.96
34925;BME280;21130;51.728;8.748;2022-09-09T13:14:01;99696.34;;;23.60;41.28
34925;BME280;21130;51.728;8.748;2022-09-09T13:16:32;99699.00;;;23.32;42.34
34925;BME280;21130;51.728;8.748;2022-09-09T13:19:00;99686.50;;;24.03;42.75
34925;BME280;21130;51.728;8.748;2022-09-09T13:21:32;99682.56;;;24.72;38.94
34925;BME280;21130;51.728;8.748;2022-09-09T13:23:57;99681.75;;;24.72;38.57
34925;BME280;21130;51.728;8.748;2022-09-09T13:26:28;99668.00;;;25.02;39.17
34925;BME280;21130;51.728;8.748;2022-09-09T13:29:07;99668.72;;;25.27;37.96
34925;BME280;21130;51.728;8.748;2022-09-09T13:31:36;99662.41;;;25.81;37.81
34925;BME280;21130;51.728;8.748;2022-09-09T13:34:12;99660.31;;;25.47;37.74
34925;BME280;21130;51.728;8.748;2022-09-09T13:36:38;99659.47;;;24.86;38.55
34925;BME280;21130;51.728;8.748;2022-09-09T13:39:04;99655.34;;;24.43;39.13
34925;BME280;21130;51.728;8.748;2022-09-09T13:41:34;99652.41;;;24.27;40.89
34925;BME280;21130;51.728;8.748;2022-09-09T13:44:01;99665.19;;;23.60;40.64
34925;BME280;21130;51.728;8.748;2022-09-09T13:46:40;99655.16;;;23.50;40.61
34925;BME280;21130;51.728;8.748;2022-09-09T13:54:05;99649.50;;;24.64;36.58
34925;BME280;21130;51.728;8.748;2022-09-09T13:56:35;99649.69;;;24.99;36.65
34925;BME280;21130;51.728;8.748;2022-09-09T13:59:03;99651.53;;;25.52;35.65
34925;BME280;21130;51.728;8.748;2022-09-09T14:01:28;99659.19;;;25.19;35.83
34925;BME280;21130;51.728;8.748;2022-09-09T14:03:55;99652.63;;;25.03;35.11
34925;BME280;21130;51.728;8.748;2022-09-09T14:06:21;99648.34;;;25.09;37.15
34925;BME280;21130;51.728;8.748;2022-09-09T14:08:50;99653.03;;;25.17;35.75
34925;BME280;21130;51.728;8.748;2022-09-09T14:11:16;99654.53;;;24.99;37.13
34925;BME280;21130;51.728;8.748;2022-09-09T14:13:42;99643.59;;;24.57;37.45
34925;BME280;21130;51.728;8.748;2022-09-09T14:16:07;99650.06;;;24.17;38.16
34925;BME280;21130;51.728;8.748;2022-09-09T14:18:32;99649.03;;;23.48;40.31
34925;BME280;21130;51.728;8.748;2022-09-09T14:20:59;99649.38;;;23.46;41.19
34925;BME280;21130;51.728;8.748;2022-09-09T14:23:25;99645.13;;;23.40;40.35
34925;BME280;21130;51.728;8.748;2022-09-09T14:25:51;99644.41;;;23.31;40.12
34925;BME280;21130;51.728;8.748;2022-09-09T14:28:16;99648.28;;;23.26;41.45
34925;BME280;21130;51.728;8.748;2022-09-09T14:30:43;99652.34;;;23.04;41.63
34925;BME280;21130;51.728;8.748;2022-09-09T14:33:14;99653.00;;;23.22;42.15
34925;BME280;21130;51.728;8.748;2022-09-09T14:35:40;99653.28;;;23.54;42.20
34925;BME280;21130;51.728;8.748;2022-09-09T14:38:07;99651.25;;;23.55;40.99
34925;BME280;21130;51.728;8.748;2022-09-09T14:40:34;99657.28;;;23.53;41.83
34925;BME280;21130;51.728;8.748;2022-09-09T14:43:00;99649.03;;;23.97;40.72
34925;BME280;21130;51.728;8.748;2022-09-09T14:45:25;99653.53;;;24.10;39.70
34925;BME280;21130;51.728;8.748;2022-09-09T14:47:51;99646.97;;;24.22;38.96
34925;BME280;21130;51.728;8.748;2022-09-09T14:50:18;99644.94;;;24.35;39.60
34925;BME280;21130;51.728;8.748;2022-09-09T14:52:43;99651.00;;;24.21;39.88
34925;BME280;21130;51.728;8.748;2022-09-09T14:55:09;99639.50;;;24.42;38.46
34925;BME280;21130;51.728;8.748;2022-09-09T14:57:34;99638.44;;;24.75;37.96
34925;BME280;21130;51.728;8.748;2022-09-09T15:00:02;99641.25;;;24.59;38.66
34925;BME280;21130;51.728;8.748;2022-09-09T15:02:28;99642.25;;;24.26;38.82
34925;BME280;21130;51.728;8.748;2022-09-09T15:04:55;99639.63;;;23.81;40.01
34925;BME280;21130;51.728;8.748;2022-09-09T15:07:22;99640.66;;;23.64;40.57